Time;durP1;ratioP1;P1;durP2;ratioP2;P2;SDS_P1;SDS_P2;PMS_P1;PMS_P2;Temp;Humidity;BMP_temperature;BMP_pressure;BME280_temperature;BME280_humidity;BME280_pressure;Samples;Min_cycle;Max_cycle;Signal;HPM_P1;HPM_P2
2023/12/09 00:01:45;;;;;;;6.75;6.00;;;5.70;99.90;;;;;;5041941;28;20278;-81
2023/12/09 00:04:12;;;;;;;8.98;5.97;;;5.70;99.90;;;;;;5042050;28;20206;-80
2023/12/09 00:06:46;;;;;;;7.47;5.57;;;5.70;99.90;;;;;;5034224;28;20200;-81
2023/12/09 00:09:13;;;;;;;6.97;5.53;;;5.50;99.90;;;;;;5035381;28;20242;-82
2023/12/09 00:11:40;;;;;;;4.40;4.00;;;5.70;99.90;;;;;;5045982;28;20273;-80
2023/12/09 00:14:08;;;;;;;6.72;5.55;;;5.70;99.90;;;;;;5038879;28;20584;-80
2023/12/09 00:16:35;;;;;;;9.00;6.33;;;5.70;99.90;;;;;;5040583;28;20192;-80
2023/12/09 00:19:02;;;;;;;6.40;5.53;;;5.70;99.90;;;;;;5038196;28;20631;-80
2023/12/09 00:21:29;;;;;;;5.85;4.97;;;5.70;99.90;;;;;;5037659;28;20744;-80
2023/12/09 00:23:57;;;;;;;7.35;5.90;;;5.70;99.90;;;;;;5036567;28;20251;-80
2023/12/09 00:26:24;;;;;;;7.50;4.40;;;5.70;99.90;;;;;;5038713;28;20677;-80
2023/12/09 00:28:51;;;;;;;6.60;5.75;;;5.70;99.90;;;;;;5044384;28;21001;-80
2023/12/09 00:31:19;;;;;;;5.75;5.03;;;5.70;99.90;;;;;;5043593;28;20417;-80
2023/12/09 00:33:46;;;;;;;6.60;5.32;;;5.70;99.90;;;;;;5043236;28;20711;-81
2023/12/09 00:36:13;;;;;;;7.70;5.00;;;5.70;99.90;;;;;;5044904;28;20685;-80
2023/12/09 00:38:40;;;;;;;7.80;5.13;;;5.70;99.90;;;;;;5048845;28;21075;-81
2023/12/09 00:41:07;;;;;;;6.95;5.50;;;5.70;99.90;;;;;;5038036;28;20689;-79
2023/12/09 00:43:33;;;;;;;10.50;6.07;;;5.70;99.90;;;;;;5038177;28;20220;-79
2023/12/09 00:46:00;;;;;;;7.95;5.70;;;5.70;99.90;;;;;;5042777;28;20331;-80
2023/12/09 00:48:28;;;;;;;5.10;4.10;;;5.60;99.90;;;;;;5043519;28;20212;-79
2023/12/09 00:50:55;;;;;;;6.10;4.90;;;5.60;99.90;;;;;;5038756;28;20205;-81
2023/12/09 00:53:22;;;;;;;7.35;6.43;;;5.60;99.90;;;;;;5045477;28;20206;-79
2023/12/09 00:55:49;;;;;;;5.53;4.50;;;5.50;99.90;;;;;;5042004;28;20291;-80
2023/12/09 00:58:15;;;;;;;5.07;4.60;;;5.50;99.90;;;;;;5041263;28;20200;-80
2023/12/09 01:00:42;;;;;;;7.10;4.93;;;5.40;99.90;;;;;;5040783;28;20222;-80
2023/12/09 01:03:09;;;;;;;5.05;4.38;;;5.30;99.90;;;;;;5049240;28;20228;-80
2023/12/09 01:05:38;;;;;;;6.38;4.70;;;5.30;99.90;;;;;;5045408;28;20210;-80
2023/12/09 01:08:05;;;;;;;5.63;4.07;;;5.20;99.90;;;;;;5048926;28;20207;-80
2023/12/09 01:10:33;;;;;;;4.38;3.50;;;5.10;99.90;;;;;;5047919;28;20212;-81
2023/12/09 01:13:00;;;;;;;5.35;4.82;;;5.10;99.90;;;;;;5040998;28;20200;-80
2023/12/09 01:15:27;;;;;;;5.43;4.60;;;4.70;99.90;;;;;;5047090;28;20204;-81
2023/12/09 01:17:53;;;;;;;5.88;4.28;;;5.00;99.90;;;;;;5047675;28;20210;-81
2023/12/09 01:20:20;;;;;;;5.38;4.30;;;5.00;99.90;;;;;;5048203;28;20200;-79
2023/12/09 01:22:48;;;;;;;4.57;4.13;;;5.00;99.90;;;;;;5048856;28;20232;-81
2023/12/09 01:25:15;;;;;;;6.78;4.60;;;5.00;99.90;;;;;;5048510;28;20724;-80
2023/12/09 01:27:42;;;;;;;5.43;4.05;;;5.00;99.90;;;;;;5044079;28;20212;-80
2023/12/09 01:30:09;;;;;;;8.95;4.78;;;5.10;99.90;;;;;;5045255;28;20212;-80
2023/12/09 01:32:36;;;;;;;6.93;4.20;;;5.10;99.90;;;;;;5046168;28;20204;-80
2023/12/09 01:35:03;;;;;;;4.15;3.72;;;5.10;99.90;;;;;;5048839;28;20646;-81
2023/12/09 01:37:30;;;;;;;4.65;4.25;;;5.10;99.90;;;;;;5050387;28;20196;-81
2023/12/09 01:39:58;;;;;;;5.82;5.30;;;5.20;99.90;;;;;;5046882;28;20211;-80
2023/12/09 01:42:25;;;;;;;6.03;5.53;;;5.20;99.90;;;;;;5047915;28;20196;-80
2023/12/09 01:44:52;;;;;;;5.88;5.28;;;5.20;99.90;;;;;;5042474;28;20661;-80
2023/12/09 01:47:19;;;;;;;8.05;5.35;;;5.30;99.90;;;;;;5048492;28;20726;-80
2023/12/09 01:49:46;;;;;;;4.10;3.70;;;5.30;99.90;;;;;;5043254;28;20208;-80
2023/12/09 01:52:13;;;;;;;5.70;4.20;;;5.30;99.90;;;;;;5048551;28;20215;-79
2023/12/09 01:54:40;;;;;;;5.55;4.20;;;5.20;99.90;;;;;;5046772;28;20693;-80
2023/12/09 01:57:09;;;;;;;4.65;4.20;;;5.30;99.90;;;;;;5044774;28;20646;-80
2023/12/09 01:59:37;;;;;;;4.78;4.28;;;5.30;99.90;;;;;;5044763;28;20192;-80
2023/12/09 02:02:04;;;;;;;8.20;5.57;;;5.30;99.90;;;;;;5047536;28;20195;-80
2023/12/09 02:04:31;;;;;;;6.50;4.78;;;5.20;99.90;;;;;;5045072;28;20409;-80
2023/12/09 02:06:58;;;;;;;7.13;5.63;;;5.20;99.90;;;;;;5046303;28;20199;-80
2023/12/09 02:09:25;;;;;;;5.30;4.80;;;5.30;99.90;;;;;;5046236;28;20202;-80
2023/12/09 02:12:02;;;;;;;5.57;4.45;;;5.30;99.90;;;;;;5046832;28;20195;-80
2023/12/09 02:14:37;;;;;;;5.55;4.18;;;5.40;99.90;;;;;;5045510;28;20239;-80
2023/12/09 02:17:11;;;;;;;14.10;5.50;;;5.30;99.90;;;;;;5046705;28;20203;-80
2023/12/09 02:19:40;;;;;;;6.35;5.80;;;5.40;99.90;;;;;;5046974;28;20614;-80
2023/12/09 02:22:08;;;;;;;4.13;3.80;;;5.30;99.90;;;;;;5046033;28;20212;-80
2023/12/09 02:24:37;;;;;;;3.80;3.50;;;5.40;99.90;;;;;;5045138;28;20435;-80
2023/12/09 02:27:09;;;;;;;5.80;4.35;;;5.30;99.90;;;;;;5045876;28;20199;-81
2023/12/09 02:29:43;;;;;;;5.85;3.97;;;5.30;99.90;;;;;;5046820;28;20208;-80
2023/12/09 02:32:14;;;;;;;6.78;4.28;;;5.30;99.90;;;;;;5046296;28;20210;-80
2023/12/09 02:34:43;;;;;;;6.25;4.60;;;5.30;99.90;;;;;;5047016;28;20295;-80
2023/12/09 02:37:13;;;;;;;4.55;3.67;;;5.30;99.90;;;;;;5045337;28;20250;-80
2023/12/09 02:39:42;;;;;;;8.13;4.38;;;5.30;99.90;;;;;;5039900;28;20200;-80
2023/12/09 02:42:11;;;;;;;3.95;3.55;;;5.40;99.90;;;;;;5043795;28;20302;-80
2023/12/09 02:44:41;;;;;;;6.00;4.65;;;5.30;99.90;;;;;;5042056;28;20773;-81
2023/12/09 02:47:12;;;;;;;6.18;4.55;;;5.40;99.90;;;;;;5037701;28;20934;-80
2023/12/09 02:49:39;;;;;;;4.47;3.78;;;5.40;99.90;;;;;;5045756;28;20207;-80
2023/12/09 02:52:06;;;;;;;4.32;3.95;;;5.40;99.90;;;;;;5047031;28;20200;-80
2023/12/09 02:54:33;;;;;;;3.70;3.40;;;5.40;99.90;;;;;;5041682;28;20200;-80
2023/12/09 02:57:01;;;;;;;4.13;3.83;;;5.40;99.90;;;;;;5046726;28;20211;-80
2023/12/09 02:59:30;;;;;;;5.72;4.22;;;5.50;99.90;;;;;;5045505;28;20216;-79
2023/12/09 03:01:57;;;;;;;4.78;3.72;;;5.40;99.90;;;;;;5044758;28;20205;-80
2023/12/09 03:04:24;;;;;;;6.22;4.80;;;5.50;99.90;;;;;;5046046;28;20227;-80
2023/12/09 03:06:52;;;;;;;9.10;4.72;;;5.50;99.90;;;;;;5039021;28;20206;-80
2023/12/09 03:09:19;;;;;;;3.60;3.28;;;5.50;99.90;;;;;;5042720;28;20242;-80
2023/12/09 03:11:47;;;;;;;4.70;4.30;;;5.50;99.90;;;;;;5044897;28;20286;-80
2023/12/09 03:14:16;;;;;;;5.57;4.47;;;5.50;99.90;;;;;;5044905;28;20232;-80
2023/12/09 03:16:44;;;;;;;5.35;4.85;;;5.50;99.90;;;;;;5044684;28;20200;-80
2023/12/09 03:19:11;;;;;;;4.10;3.80;;;5.40;99.90;;;;;;5045063;28;20192;-79
2023/12/09 03:21:39;;;;;;;5.80;3.90;;;5.50;99.90;;;;;;5045629;28;20206;-80
2023/12/09 03:24:06;;;;;;;4.28;3.88;;;5.40;99.90;;;;;;5045063;28;20773;-80
2023/12/09 03:26:33;;;;;;;3.42;3.10;;;5.40;99.90;;;;;;5046209;28;20661;-81
2023/12/09 03:29:00;;;;;;;4.28;3.70;;;5.50;99.90;;;;;;5045341;28;20677;-80
2023/12/09 03:31:31;;;;;;;4.20;3.25;;;5.40;99.90;;;;;;5046173;28;20910;-80
2023/12/09 03:33:58;;;;;;;5.53;3.90;;;5.50;99.90;;;;;;5046087;28;20700;-81
2023/12/09 03:36:26;;;;;;;4.57;3.10;;;5.50;99.90;;;;;;5046505;28;20212;-81
2023/12/09 03:38:53;;;;;;;3.75;3.42;;;5.50;99.90;;;;;;5043135;28;20198;-80
2023/12/09 03:41:19;;;;;;;5.80;3.30;;;5.60;99.90;;;;;;5045412;28;20204;-81
2023/12/09 03:43:46;;;;;;;4.50;2.92;;;5.50;99.90;;;;;;5045111;28;20242;-80
2023/12/09 03:46:14;;;;;;;9.13;3.17;;;5.40;99.90;;;;;;5042391;28;20214;-80
2023/12/09 03:48:42;;;;;;;4.65;3.63;;;5.40;99.90;;;;;;5043944;28;20615;-81
2023/12/09 03:51:09;;;;;;;12.88;3.05;;;5.40;99.90;;;;;;5042362;28;20200;-80
2023/12/09 03:53:35;;;;;;;4.22;3.15;;;5.30;99.90;;;;;;5046922;28;20656;-80
2023/12/09 03:56:03;;;;;;;4.18;2.55;;;5.30;99.90;;;;;;5042305;28;20232;-81
2023/12/09 03:58:30;;;;;;;3.78;3.30;;;5.20;99.90;;;;;;5034879;28;20226;-80
2023/12/09 04:00:57;;;;;;;3.13;2.85;;;5.20;99.90;;;;;;5044805;28;20196;-80
2023/12/09 04:03:24;;;;;;;5.57;2.40;;;5.20;99.90;;;;;;5043902;28;20405;-80
2023/12/09 04:05:52;;;;;;;4.15;3.75;;;5.10;99.90;;;;;;5041925;28;20278;-81
2023/12/09 04:08:19;;;;;;;7.78;3.90;;;5.10;99.90;;;;;;5045137;28;20216;-81
2023/12/09 04:10:46;;;;;;;3.30;3.00;;;5.00;99.90;;;;;;5045687;28;20211;-80
2023/12/09 04:13:13;;;;;;;4.03;3.35;;;5.00;99.90;;;;;;5044906;28;20212;-80
2023/12/09 04:15:40;;;;;;;4.00;3.70;;;4.90;99.90;;;;;;5039536;28;20203;-80
2023/12/09 04:18:07;;;;;;;4.38;3.22;;;4.90;99.90;;;;;;5046514;28;20592;-81
2023/12/09 04:20:34;;;;;;;7.13;3.50;;;5.00;99.90;;;;;;5034094;28;20467;-80
2023/12/09 04:23:04;;;;;;;3.30;3.00;;;4.90;99.90;;;;;;5041912;28;20879;-81
2023/12/09 04:25:30;;;;;;;3.30;2.97;;;4.90;99.90;;;;;;5038099;28;20223;-81
2023/12/09 04:27:57;;;;;;;3.03;2.30;;;4.90;99.90;;;;;;5042190;28;20303;-81
2023/12/09 04:30:24;;;;;;;4.50;3.10;;;4.80;99.90;;;;;;5045733;28;20200;-80
2023/12/09 04:32:51;;;;;;;4.03;3.72;;;4.90;99.90;;;;;;5045880;28;20200;-80
2023/12/09 04:35:21;;;;;;;4.30;3.25;;;4.80;99.90;;;;;;5045184;28;20214;-80
2023/12/09 04:37:47;;;;;;;3.38;2.95;;;4.80;99.90;;;;;;5043742;28;20214;-81
2023/12/09 04:40:15;;;;;;;5.88;2.80;;;4.80;99.90;;;;;;5049586;28;20206;-80
2023/12/09 04:42:42;;;;;;;3.17;2.88;;;4.80;99.90;;;;;;5050361;28;20196;-80
2023/12/09 04:45:10;;;;;;;3.30;2.85;;;4.90;99.90;;;;;;5048932;28;20613;-81
2023/12/09 04:47:38;;;;;;;5.18;2.95;;;4.90;99.90;;;;;;5049492;28;20223;-81
2023/12/09 04:50:08;;;;;;;5.20;3.63;;;4.90;99.90;;;;;;5048870;28;20227;-81
2023/12/09 04:52:34;;;;;;;3.20;2.83;;;4.90;99.90;;;;;;5046380;28;20208;-80
2023/12/09 04:55:01;;;;;;;3.20;2.80;;;4.90;99.90;;;;;;5047201;28;20227;-78
2023/12/09 04:57:29;;;;;;;4.15;3.65;;;4.90;99.90;;;;;;5048893;28;20208;-79
2023/12/09 04:59:56;;;;;;;3.22;2.92;;;4.90;99.90;;;;;;5049103;28;20653;-79
2023/12/09 05:02:23;;;;;;;3.72;3.20;;;4.90;99.90;;;;;;5048948;28;20207;-81
2023/12/09 05:04:50;;;;;;;7.75;4.80;;;4.90;99.90;;;;;;5048078;28;20760;-80
2023/12/09 05:07:17;;;;;;;5.18;3.58;;;4.90;99.90;;;;;;5049779;28;20235;-80
2023/12/09 05:09:44;;;;;;;3.60;3.25;;;5.00;99.90;;;;;;5048918;28;20200;-80
2023/12/09 05:12:10;;;;;;;2.97;2.40;;;5.00;99.90;;;;;;5049502;28;20204;-80
2023/12/09 05:14:39;;;;;;;3.70;3.35;;;5.10;99.90;;;;;;5049442;28;20633;-80
2023/12/09 05:17:05;;;;;;;3.83;3.35;;;5.00;99.90;;;;;;5048367;28;20200;-80
2023/12/09 05:19:32;;;;;;;3.85;2.92;;;5.00;99.90;;;;;;5048775;28;20553;-80
2023/12/09 05:21:59;;;;;;;3.05;2.60;;;5.00;99.90;;;;;;5049416;28;20226;-80
2023/12/09 05:24:26;;;;;;;3.05;2.75;;;5.00;99.90;;;;;;5049000;28;20219;-80
2023/12/09 05:26:53;;;;;;;3.67;3.38;;;5.00;99.90;;;;;;5042274;28;20251;-80
2023/12/09 05:29:20;;;;;;;3.10;2.25;;;5.00;99.90;;;;;;5047266;28;20214;-79
2023/12/09 05:31:48;;;;;;;4.00;2.92;;;5.00;99.90;;;;;;5045422;28;20725;-80
2023/12/09 05:34:14;;;;;;;5.07;3.42;;;5.10;99.90;;;;;;5039637;28;20294;-79
2023/12/09 05:36:41;;;;;;;4.20;2.70;;;5.10;99.90;;;;;;5044959;28;20200;-80
2023/12/09 05:39:08;;;;;;;5.05;3.13;;;5.00;99.90;;;;;;5044072;28;20215;-79
2023/12/09 05:41:36;;;;;;;4.45;3.10;;;5.00;99.90;;;;;;5044996;28;20200;-80
2023/12/09 05:44:02;;;;;;;6.15;2.85;;;5.10;99.90;;;;;;5043972;28;20228;-80
2023/12/09 05:46:29;;;;;;;3.00;2.67;;;5.00;99.90;;;;;;5041105;28;20752;-80
2023/12/09 05:48:57;;;;;;;2.78;2.47;;;4.90;99.90;;;;;;5041449;28;20207;-79
2023/12/09 05:51:24;;;;;;;3.03;2.72;;;4.80;99.90;;;;;;5043220;28;20258;-80
2023/12/09 05:53:51;;;;;;;4.20;2.50;;;4.90;99.90;;;;;;5043019;28;20203;-80
2023/12/09 05:56:18;;;;;;;3.70;3.03;;;4.90;99.90;;;;;;5047591;28;20207;-81
2023/12/09 05:58:47;;;;;;;6.97;3.42;;;5.00;99.90;;;;;;5045713;28;20208;-81
2023/12/09 06:01:14;;;;;;;3.55;2.72;;;4.90;99.90;;;;;;5047685;28;20534;-82
2023/12/09 06:03:41;;;;;;;2.05;1.80;;;4.90;99.90;;;;;;5044257;28;20200;-81
2023/12/09 06:06:09;;;;;;;3.38;3.03;;;4.90;99.90;;;;;;5047516;28;20200;-81
2023/12/09 06:08:36;;;;;;;1.70;1.60;;;4.90;99.90;;;;;;5044732;28;20286;-81
2023/12/09 06:11:03;;;;;;;3.85;2.30;;;5.00;99.90;;;;;;5046539;28;20196;-80
2023/12/09 06:13:32;;;;;;;2.83;2.38;;;5.00;99.90;;;;;;5046951;28;20209;-81
2023/12/09 06:15:58;;;;;;;3.95;2.65;;;5.00;99.90;;;;;;5047835;28;20207;-81
2023/12/09 06:18:26;;;;;;;2.67;2.47;;;5.00;99.90;;;;;;5046169;28;20204;-82
2023/12/09 06:20:52;;;;;;;2.47;1.73;;;5.10;99.90;;;;;;5047410;28;20202;-81
2023/12/09 06:23:20;;;;;;;2.10;1.70;;;5.10;99.90;;;;;;5047764;28;20204;-78
2023/12/09 06:25:48;;;;;;;3.83;1.92;;;5.00;99.90;;;;;;5041782;28;20219;-80
2023/12/09 06:28:14;;;;;;;2.38;2.17;;;5.10;99.90;;;;;;5047529;28;20235;-80
2023/12/09 06:30:41;;;;;;;5.47;2.97;;;5.10;99.90;;;;;;5044257;28;20306;-79
2023/12/09 06:33:08;;;;;;;2.53;2.15;;;5.10;99.90;;;;;;5044048;28;20202;-80
2023/12/09 06:35:35;;;;;;;1.70;1.60;;;5.10;99.90;;;;;;5046644;28;20291;-80
2023/12/09 06:38:02;;;;;;;2.28;1.85;;;5.20;99.90;;;;;;5046979;28;20195;-80
2023/12/09 06:40:30;;;;;;;2.45;1.98;;;5.20;99.90;;;;;;5040527;28;20557;-79
2023/12/09 06:42:57;;;;;;;2.70;2.30;;;5.20;99.90;;;;;;5047613;28;20283;-80
2023/12/09 06:45:24;;;;;;;1.77;1.65;;;5.20;99.90;;;;;;5045433;28;20234;-78
2023/12/09 06:47:53;;;;;;;1.60;1.50;;;5.20;99.90;;;;;;5045259;28;20214;-79
2023/12/09 06:50:20;;;;;;;2.00;1.85;;;5.20;99.90;;;;;;5041941;28;20200;-79
2023/12/09 06:52:47;;;;;;;1.52;1.13;;;5.20;99.90;;;;;;5040384;28;20246;-78
2023/12/09 06:55:20;;;;;;;1.80;1.58;;;5.20;99.90;;;;;;5032485;28;20324;-80
2023/12/09 06:57:48;;;;;;;4.68;2.05;;;5.20;99.90;;;;;;5041348;28;20208;-79
2023/12/09 07:00:16;;;;;;;3.00;1.80;;;5.20;99.90;;;;;;5039057;28;20620;-79
2023/12/09 07:02:43;;;;;;;1.67;1.30;;;5.20;99.90;;;;;;5040070;28;20215;-78
2023/12/09 07:05:13;;;;;;;2.15;1.33;;;5.20;99.90;;;;;;5045659;28;20247;-78
2023/12/09 07:07:40;;;;;;;2.28;2.05;;;5.20;99.90;;;;;;5044585;28;20552;-79
2023/12/09 07:10:08;;;;;;;4.40;2.28;;;5.20;99.90;;;;;;5046446;28;20739;-79
2023/12/09 07:12:35;;;;;;;1.60;1.50;;;5.20;99.90;;;;;;5045760;28;20196;-79
2023/12/09 07:15:05;;;;;;;1.70;1.60;;;5.20;99.90;;;;;;5041365;28;20204;-78
2023/12/09 07:17:32;;;;;;;2.22;1.38;;;5.20;99.90;;;;;;5044159;28;20215;-79
2023/12/09 07:19:59;;;;;;;2.45;1.88;;;5.20;99.90;;;;;;5044931;28;20211;-78
2023/12/09 07:22:26;;;;;;;1.65;1.55;;;5.20;99.90;;;;;;5038968;28;20632;-79
2023/12/09 07:24:53;;;;;;;3.83;1.77;;;5.30;99.90;;;;;;5039091;28;20238;-79
2023/12/09 07:27:20;;;;;;;1.83;1.73;;;5.10;99.90;;;;;;5044464;28;20206;-79
2023/12/09 07:29:46;;;;;;;1.52;1.42;;;5.20;99.90;;;;;;5046044;28;20303;-79
2023/12/09 07:32:14;;;;;;;1.23;1.13;;;5.20;99.90;;;;;;5039383;28;20912;-80
2023/12/09 07:34:41;;;;;;;2.78;1.60;;;5.20;99.90;;;;;;5038319;28;20592;-79
2023/12/09 07:37:11;;;;;;;1.48;1.38;;;5.30;99.90;;;;;;5044526;28;20226;-79
2023/12/09 07:39:38;;;;;;;1.60;1.50;;;5.20;99.90;;;;;;5041318;28;20202;-79
2023/12/09 07:42:05;;;;;;;3.85;1.67;;;5.30;99.90;;;;;;5045968;28;20219;-79
2023/12/09 07:44:32;;;;;;;2.95;1.70;;;5.30;99.90;;;;;;5043383;28;20224;-82
2023/12/09 07:46:58;;;;;;;2.58;1.52;;;5.40;99.90;;;;;;5042005;28;20257;-78
2023/12/09 07:49:27;;;;;;;2.17;1.90;;;5.30;99.90;;;;;;5038292;28;20279;-77
2023/12/09 07:51:54;;;;;;;1.15;1.05;;;5.60;99.90;;;;;;5043589;28;20239;-75
2023/12/09 07:54:21;;;;;;;3.00;1.93;;;5.80;99.90;;;;;;5044246;28;21250;-74
2023/12/09 07:56:48;;;;;;;3.97;2.70;;;5.40;99.90;;;;;;5041106;28;20645;-80
2023/12/09 07:59:16;;;;;;;5.03;2.53;;;5.30;99.90;;;;;;5038387;28;20208;-80
2023/12/09 08:01:44;;;;;;;2.08;1.98;;;5.40;99.90;;;;;;5034334;28;20207;-78
2023/12/09 08:04:11;;;;;;;1.52;1.23;;;5.30;99.90;;;;;;5037905;28;20211;-77
2023/12/09 08:06:39;;;;;;;2.00;1.73;;;5.40;99.90;;;;;;5033875;28;20236;-82
2023/12/09 08:09:06;;;;;;;6.43;2.28;;;5.50;99.90;;;;;;5038459;28;20678;-85
2023/12/09 08:11:33;;;;;;;1.88;1.73;;;5.50;99.90;;;;;;5038599;28;20204;-77
2023/12/09 08:14:00;;;;;;;2.40;1.75;;;5.40;99.90;;;;;;5034042;28;20205;-79
2023/12/09 08:16:27;;;;;;;1.92;1.70;;;5.50;99.90;;;;;;5034340;28;20553;-80
2023/12/09 08:18:54;;;;;;;1.70;1.30;;;5.50;99.90;;;;;;5032119;28;20212;-80
2023/12/09 08:21:20;;;;;;;2.20;2.03;;;5.60;99.90;;;;;;5035203;28;20287;-78
2023/12/09 08:23:48;;;;;;;1.02;0.95;;;5.60;99.90;;;;;;5045461;28;20208;-78
2023/12/09 08:26:18;;;;;;;1.80;1.70;;;5.70;99.90;;;;;;5040709;28;20212;-78
2023/12/09 08:28:45;;;;;;;2.30;1.70;;;5.70;99.90;;;;;;5043344;28;20196;-78
2023/12/09 08:31:12;;;;;;;1.52;1.42;;;5.70;99.90;;;;;;5039854;28;20295;-79
2023/12/09 08:33:39;;;;;;;1.25;1.00;;;5.70;99.90;;;;;;5037702;28;20275;-78
2023/12/09 08:36:07;;;;;;;1.92;1.33;;;5.70;99.90;;;;;;5045452;28;20192;-80
2023/12/09 08:38:34;;;;;;;1.65;1.40;;;5.70;99.90;;;;;;5045032;28;20188;-79
2023/12/09 08:41:02;;;;;;;2.30;2.10;;;5.70;99.90;;;;;;5041846;28;20210;-78
2023/12/09 08:43:29;;;;;;;2.78;2.53;;;5.60;99.90;;;;;;5033418;28;21113;-78
2023/12/09 08:45:56;;;;;;;1.83;1.73;;;5.80;99.90;;;;;;5035034;28;20723;-77
2023/12/09 08:48:23;;;;;;;2.15;1.60;;;5.80;99.90;;;;;;5029943;28;20456;-74
2023/12/09 08:50:50;;;;;;;2.58;1.98;;;5.90;99.90;;;;;;5032603;28;20199;-74
2023/12/09 08:53:17;;;;;;;3.10;1.92;;;5.90;99.90;;;;;;5041938;28;20603;-74
2023/12/09 08:55:44;;;;;;;1.90;1.40;;;5.90;99.90;;;;;;5036369;28;20567;-74
2023/12/09 08:58:12;;;;;;;2.60;2.40;;;5.90;99.90;;;;;;5038845;28;20290;-73
2023/12/09 09:00:39;;;;;;;2.77;1.63;;;5.90;99.90;;;;;;5042950;28;20200;-74
2023/12/09 09:03:06;;;;;;;2.55;2.35;;;6.00;99.90;;;;;;5038653;28;20683;-73
2023/12/09 09:05:33;;;;;;;2.20;2.10;;;6.10;99.90;;;;;;5042600;28;20227;-73
2023/12/09 09:08:00;;;;;;;3.42;1.42;;;6.10;99.90;;;;;;5039136;28;20212;-75
2023/12/09 09:10:27;;;;;;;1.92;1.77;;;6.10;99.90;;;;;;5039254;28;20283;-75
2023/12/09 09:12:53;;;;;;;2.33;1.60;;;6.10;99.90;;;;;;5041737;28;20632;-75
2023/12/09 09:15:21;;;;;;;1.60;1.50;;;6.30;99.90;;;;;;5042719;28;20546;-75
2023/12/09 09:17:48;;;;;;;1.83;1.73;;;6.10;99.90;;;;;;5039553;28;20196;-77
2023/12/09 09:20:15;;;;;;;1.30;1.00;;;6.20;99.90;;;;;;5044550;28;21187;-74
2023/12/09 09:22:42;;;;;;;2.58;1.70;;;6.20;99.90;;;;;;5038646;28;20672;-74
2023/12/09 09:25:10;;;;;;;3.40;1.70;;;6.30;99.90;;;;;;5043521;28;20318;-75
2023/12/09 09:27:37;;;;;;;1.60;1.50;;;6.20;99.90;;;;;;5040249;28;20615;-75
2023/12/09 09:30:05;;;;;;;1.75;1.65;;;6.30;99.90;;;;;;5033856;28;20640;-75
2023/12/09 09:32:33;;;;;;;2.15;1.60;;;6.30;99.90;;;;;;5042957;28;20208;-74
2023/12/09 09:35:02;;;;;;;3.90;2.70;;;6.30;99.90;;;;;;5039424;28;20218;-75
2023/12/09 09:37:30;;;;;;;1.13;1.05;;;6.30;99.90;;;;;;5039958;28;20737;-75
2023/12/09 09:39:56;;;;;;;4.00;1.20;;;6.30;99.90;;;;;;5039970;28;20204;-76
2023/12/09 09:42:31;;;;;;;4.20;1.10;;;6.30;99.90;;;;;;5039455;28;20207;-76
2023/12/09 09:45:08;;;;;;;2.00;1.13;;;6.30;99.90;;;;;;5042856;28;20679;-76
2023/12/09 09:47:37;;;;;;;2.07;1.27;;;6.40;99.90;;;;;;5041388;28;21050;-76
2023/12/09 09:50:05;;;;;;;2.57;1.60;;;6.40;99.90;;;;;;5042471;28;20718;-76
2023/12/09 09:52:36;;;;;;;2.37;1.70;;;6.40;99.90;;;;;;5042340;28;20625;-76
2023/12/09 09:55:04;;;;;;;4.23;1.70;;;6.40;99.90;;;;;;5041875;28;20657;-76
2023/12/09 09:57:31;;;;;;;6.20;1.80;;;6.50;99.90;;;;;;5041807;28;20634;-75
2023/12/09 09:59:59;;;;;;;2.08;1.48;;;6.50;99.90;;;;;;5039166;28;20826;-76
2023/12/09 10:02:27;;;;;;;3.27;2.30;;;6.50;99.90;;;;;;5038711;28;20200;-75
2023/12/09 10:04:56;;;;;;;1.67;1.50;;;6.60;99.90;;;;;;5038487;28;20615;-75
2023/12/09 10:07:25;;;;;;;3.17;2.07;;;6.60;99.90;;;;;;5039150;28;20662;-76
2023/12/09 10:09:55;;;;;;;2.53;2.30;;;6.60;99.90;;;;;;5038839;28;20645;-76
2023/12/09 10:12:22;;;;;;;3.10;1.77;;;6.70;99.90;;;;;;5035831;28;20637;-75
2023/12/09 10:14:48;;;;;;;1.47;1.37;;;6.70;99.90;;;;;;5031673;28;20742;-75
2023/12/09 10:17:16;;;;;;;1.77;1.07;;;6.70;99.90;;;;;;5036229;28;20622;-75
2023/12/09 10:19:42;;;;;;;1.50;1.40;;;6.70;99.90;;;;;;5036463;28;20645;-75
2023/12/09 10:22:11;;;;;;;2.17;1.67;;;6.70;99.90;;;;;;5037162;28;20631;-75
2023/12/09 10:24:37;;;;;;;2.50;1.00;;;6.80;99.90;;;;;;5041756;28;21086;-76
2023/12/09 10:27:06;;;;;;;2.00;1.20;;;6.80;99.90;;;;;;5039650;28;20680;-75
2023/12/09 10:29:33;;;;;;;0.77;0.77;;;6.90;99.90;;;;;;5036584;28;20626;-76
2023/12/09 10:32:01;;;;;;;1.70;1.60;;;6.90;99.90;;;;;;5038231;28;20618;-75
2023/12/09 10:34:29;;;;;;;1.97;1.63;;;6.90;99.90;;;;;;5038962;28;20626;-75
2023/12/09 10:36:56;;;;;;;1.70;1.55;;;6.90;99.90;;;;;;5039685;28;20637;-75
2023/12/09 10:39:24;;;;;;;1.90;1.50;;;7.00;99.90;;;;;;5040174;28;20639;-76
2023/12/09 10:41:51;;;;;;;1.30;1.20;;;6.90;99.90;;;;;;5043570;28;20980;-76
2023/12/09 10:44:18;;;;;;;1.57;1.47;;;7.10;99.90;;;;;;5048114;28;21213;-76
2023/12/09 10:46:45;;;;;;;2.17;1.17;;;7.20;99.90;;;;;;5053453;28;20700;-76
2023/12/09 10:49:12;;;;;;;1.93;1.60;;;7.20;99.90;;;;;;5051484;28;20636;-76
2023/12/09 10:51:39;;;;;;;3.50;1.73;;;7.10;99.90;;;;;;5055558;28;20634;-76
2023/12/09 10:54:05;;;;;;;1.70;1.60;;;7.20;99.90;;;;;;5057128;28;20628;-76
2023/12/09 10:56:34;;;;;;;1.90;1.70;;;7.20;99.90;;;;;;5053409;28;20653;-76
2023/12/09 10:59:02;;;;;;;1.53;1.43;;;7.20;99.90;;;;;;5051460;28;20641;-77
2023/12/09 11:01:30;;;;;;;1.33;1.23;;;7.20;99.90;;;;;;5053533;28;20679;-77
2023/12/09 11:03:58;;;;;;;2.03;1.20;;;7.20;99.90;;;;;;5056389;28;21198;-76
2023/12/09 11:06:28;;;;;;;1.80;1.70;;;7.30;99.90;;;;;;5051532;28;20657;-76
2023/12/09 11:08:55;;;;;;;1.40;1.00;;;7.40;99.90;;;;;;5055200;28;20638;-76
2023/12/09 11:11:44;;;;;;;3.10;1.80;;;7.40;99.90;;;;;;5055635;28;20617;-76
2023/12/09 11:14:13;;;;;;;1.93;1.73;;;7.40;99.90;;;;;;5045099;28;20676;-76
2023/12/09 11:16:43;;;;;;;2.13;1.60;;;7.50;99.90;;;;;;5056189;28;20942;-78
2023/12/09 11:19:15;;;;;;;1.40;1.30;;;7.50;99.90;;;;;;5052630;28;20630;-78
2023/12/09 11:21:45;;;;;;;1.83;1.43;;;7.50;99.90;;;;;;5044286;28;20625;-82
2023/12/09 11:24:12;;;;;;;1.77;1.67;;;7.50;99.90;;;;;;5051240;28;20634;-82
2023/12/09 11:26:45;;;;;;;1.57;1.37;;;7.50;99.90;;;;;;5035969;28;20655;-83
2023/12/09 11:29:16;;;;;;;2.07;1.87;;;7.50;99.90;;;;;;5042447;28;21264;-80
2023/12/09 11:31:46;;;;;;;1.67;1.37;;;7.40;99.90;;;;;;5039226;28;20730;-83
2023/12/09 11:34:14;;;;;;;2.67;2.10;;;7.50;99.90;;;;;;5049143;28;20634;-82
2023/12/09 11:36:41;;;;;;;2.93;1.63;;;7.50;99.90;;;;;;5054309;28;20721;-83
2023/12/09 11:39:11;;;;;;;1.97;1.77;;;7.50;99.90;;;;;;5048106;28;21174;-83
2023/12/09 11:41:38;;;;;;;1.67;1.57;;;7.60;99.90;;;;;;5051557;28;20639;-76
2023/12/09 11:44:06;;;;;;;2.03;1.80;;;7.70;99.90;;;;;;5054561;28;20622;-80
2023/12/09 11:46:36;;;;;;;3.00;2.00;;;7.80;99.90;;;;;;5047276;28;20677;-81
2023/12/09 11:49:03;;;;;;;1.43;1.33;;;7.70;99.90;;;;;;5051365;28;20641;-81
2023/12/09 11:51:31;;;;;;;4.07;2.50;;;7.70;99.90;;;;;;5048992;28;20980;-80
2023/12/09 11:54:02;;;;;;;2.33;2.13;;;7.70;99.90;;;;;;5054544;28;20733;-78
2023/12/09 11:56:29;;;;;;;2.93;2.27;;;7.60;99.90;;;;;;5058040;28;20736;-79
2023/12/09 11:58:56;;;;;;;2.27;1.60;;;7.50;99.90;;;;;;5056337;28;20733;-78
2023/12/09 12:01:24;;;;;;;7.13;2.30;;;7.70;99.90;;;;;;5056032;28;20617;-78
2023/12/09 12:03:53;;;;;;;3.73;2.17;;;7.60;99.90;;;;;;5049000;28;20737;-77
2023/12/09 12:06:20;;;;;;;2.77;1.83;;;7.50;99.90;;;;;;5045841;28;20670;-78
2023/12/09 12:08:50;;;;;;;4.57;2.47;;;7.50;99.90;;;;;;5040280;28;21045;-78
2023/12/09 12:11:18;;;;;;;2.77;2.00;;;7.60;99.90;;;;;;5045181;28;21329;-78
2023/12/09 12:13:45;;;;;;;3.07;2.40;;;7.70;99.90;;;;;;5045056;28;20629;-77
2023/12/09 12:16:12;;;;;;;5.60;2.17;;;7.50;99.90;;;;;;5045670;28;20999;-77
2023/12/09 12:18:39;;;;;;;2.33;2.13;;;7.50;99.90;;;;;;5039711;28;20700;-78
2023/12/09 12:21:08;;;;;;;2.20;1.93;;;7.50;99.90;;;;;;5045509;28;20629;-78
2023/12/09 12:23:35;;;;;;;1.97;1.87;;;7.50;99.90;;;;;;5045763;28;21167;-78
2023/12/09 12:26:02;;;;;;;5.87;3.17;;;7.40;99.90;;;;;;5045553;28;20650;-78
2023/12/09 12:28:29;;;;;;;7.40;3.20;;;7.50;99.90;;;;;;5045586;28;20687;-76
2023/12/09 12:30:59;;;;;;;2.37;2.07;;;7.40;99.90;;;;;;5044671;28;21239;-76
2023/12/09 12:33:30;;;;;;;3.07;2.30;;;7.50;99.90;;;;;;5041384;28;20634;-77
2023/12/09 12:36:00;;;;;;;3.30;2.70;;;7.50;99.90;;;;;;5045579;28;20731;-76
2023/12/09 12:38:28;;;;;;;2.40;1.97;;;7.50;99.90;;;;;;5045287;28;20624;-75
2023/12/09 12:40:56;;;;;;;2.63;2.33;;;7.60;99.90;;;;;;5040131;28;20655;-75
2023/12/09 12:43:24;;;;;;;3.77;1.93;;;7.60;99.90;;;;;;5045488;28;20626;-75
2023/12/09 12:45:52;;;;;;;1.93;1.70;;;7.70;99.90;;;;;;5037205;28;20932;-75
2023/12/09 12:48:19;;;;;;;4.90;2.30;;;7.80;99.90;;;;;;5041021;28;20638;-75
2023/12/09 12:50:48;;;;;;;2.93;2.20;;;7.80;99.90;;;;;;5041228;28;20638;-75
2023/12/09 12:53:16;;;;;;;2.93;2.73;;;8.00;99.90;;;;;;5046286;28;20634;-75
2023/12/09 12:55:44;;;;;;;6.37;1.63;;;7.90;99.90;;;;;;5039379;28;20627;-76
2023/12/09 12:58:12;;;;;;;2.30;1.83;;;8.00;99.90;;;;;;5047775;28;21017;-76
2023/12/09 13:00:39;;;;;;;1.77;1.67;;;8.00;99.90;;;;;;5042675;28;20985;-78